Time;durP1;ratioP1;P1;durP2;ratioP2;P2;SDS_P1;SDS_P2;PMS_P1;PMS_P2;Temp;Humidity;BMP_temperature;BMP_pressure;BME280_temperature;BME280_humidity;BME280_pressure;Samples;Min_cycle;Max_cycle;Signal;HPM_P1;HPM_P2
2020/12/14 00:00:56;;;;;;;29.87;17.23;;;;;;;6.52;56.86;100689.22;1790847;80;21202;-77
2020/12/14 00:03:25;;;;;;;32.33;17.27;;;;;;;6.51;56.97;100691.52;1786599;80;21639;-77
2020/12/14 00:05:54;;;;;;;40.85;21.93;;;;;;;6.68;56.55;100687.48;1813165;79;21640;-77
2020/12/14 00:08:22;;;;;;;38.90;19.70;;;;;;;6.68;56.54;100697.28;1792921;80;21153;-76
2020/12/14 00:10:52;;;;;;;40.43;20.65;;;;;;;6.70;56.47;100690.00;1792521;79;21169;-78
2020/12/14 00:13:20;;;;;;;32.88;16.97;;;;;;;6.75;56.30;100689.97;1834114;77;21482;-81
2020/12/14 00:15:48;;;;;;;36.93;19.05;;;;;;;6.72;56.38;100698.69;1833104;77;21521;-81
2020/12/14 00:18:16;;;;;;;33.35;17.98;;;;;;;6.78;56.26;100690.21;1803210;78;21192;-77
2020/12/14 00:20:44;;;;;;;30.85;16.55;;;;;;;6.83;56.20;100694.66;1810647;78;21153;-79
2020/12/14 00:23:12;;;;;;;35.63;18.35;;;;;;;6.83;56.13;100694.66;1843359;77;21357;-79
2020/12/14 00:25:40;;;;;;;32.50;17.65;;;;;;;6.86;56.07;100691.75;1845561;77;21161;-81
2020/12/14 00:28:08;;;;;;;33.53;17.85;;;;;;;6.88;56.01;100692.45;1846153;77;21134;-79
2020/12/14 00:30:35;;;;;;;26.05;14.13;;;;;;;6.87;55.95;100690.77;1845915;77;21160;-79
2020/12/14 00:33:03;;;;;;;33.15;17.20;;;;;;;6.86;55.92;100686.43;1846086;77;21339;-76
2020/12/14 00:35:31;;;;;;;29.87;15.18;;;;;;;6.85;55.87;100690.87;1845680;77;21344;-77
2020/12/14 00:37:59;;;;;;;31.85;16.97;;;;;;;6.87;55.92;100692.11;1845895;77;21531;-77
2020/12/14 00:40:29;;;;;;;31.20;17.25;;;;;;;6.89;55.89;100694.14;1796323;77;21663;-78
2020/12/14 00:42:57;;;;;;;37.15;17.10;;;;;;;6.90;55.84;100690.98;1817802;78;21085;-80
2020/12/14 00:45:25;;;;;;;31.70;17.48;;;;;;;6.90;55.79;100691.83;1813302;78;22243;-75
2020/12/14 00:47:53;;;;;;;32.98;18.23;;;;;;;6.91;55.73;100690.87;1816303;78;21376;-76
2020/12/14 00:50:21;;;;;;;32.10;15.63;;;;;;;6.89;55.70;100683.48;1801697;79;21133;-77
2020/12/14 00:52:49;;;;;;;27.02;14.53;;;;;;;6.88;55.70;100684.47;1794650;79;21172;-76
2020/12/14 00:55:18;;;;;;;26.25;14.68;;;;;;;6.66;56.22;100689.41;1855180;76;21701;-77
2020/12/14 00:57:46;;;;;;;27.95;15.60;;;;;;;6.63;56.31;100686.14;1846969;76;21153;-77
2020/12/14 01:00:14;;;;;;;32.20;17.40;;;;;;;6.61;56.39;100684.46;1865242;76;21204;-76
2020/12/14 01:02:42;;;;;;;32.40;16.20;;;;;;;6.63;56.43;100684.81;1830731;77;21184;-76
2020/12/14 01:05:10;;;;;;;32.42;17.25;;;;;;;6.61;56.39;100677.80;1794644;79;21129;-76
2020/12/14 01:07:38;;;;;;;30.75;16.57;;;;;;;6.61;56.39;100685.80;1816481;78;21180;-78
2020/12/14 01:10:06;;;;;;;28.07;14.28;;;;;;;6.60;56.45;100674.80;1800986;79;21647;-76
2020/12/14 01:12:34;;;;;;;26.73;14.30;;;;;;;6.56;56.41;100681.34;1800187;79;21333;-77
2020/12/14 01:15:03;;;;;;;27.50;14.63;;;;;;;6.54;56.52;100673.98;1793438;79;21699;-76
2020/12/14 01:17:31;;;;;;;27.85;16.52;;;;;;;6.55;56.54;100680.98;1863837;76;21154;-79
2020/12/14 01:20:00;;;;;;;29.37;15.98;;;;;;;6.63;56.41;100683.48;1802222;79;21192;-77
2020/12/14 01:22:27;;;;;;;31.37;15.53;;;;;;;6.57;56.48;100677.70;1833148;77;21149;-77
2020/12/14 01:24:56;;;;;;;28.90;16.07;;;;;;;6.57;56.49;100672.38;1832735;77;21844;-77
2020/12/14 01:27:24;;;;;;;32.03;15.40;;;;;;;6.56;56.48;100673.36;1799512;79;21227;-77
2020/12/14 01:29:52;;;;;;;23.60;12.40;;;;;;;6.55;56.50;100668.17;1848918;76;21625;-77
2020/12/14 01:32:20;;;;;;;25.17;13.48;;;;;;;6.54;56.54;100676.64;1817505;78;21145;-77
2020/12/14 01:34:48;;;;;;;24.65;13.08;;;;;;;6.55;56.53;100671.67;1804254;79;21157;-76
2020/12/14 01:37:17;;;;;;;23.02;14.03;;;;;;;6.57;56.53;100672.38;1798948;79;21320;-77
2020/12/14 01:39:44;;;;;;;22.70;13.38;;;;;;;6.61;56.42;100671.64;1802480;78;21516;-79
2020/12/14 01:42:12;;;;;;;25.72;14.68;;;;;;;6.61;56.42;100671.64;1800202;79;21078;-77
2020/12/14 01:44:40;;;;;;;25.75;14.40;;;;;;;6.59;56.37;100670.45;1802448;79;21168;-78
2020/12/14 01:47:08;;;;;;;22.10;12.55;;;;;;;6.57;56.40;100671.05;1795055;79;21196;-77
2020/12/14 01:49:37;;;;;;;18.00;10.82;;;;;;;6.57;56.33;100671.05;1861411;76;22032;-78
2020/12/14 01:52:05;;;;;;;19.32;11.28;;;;;;;6.70;56.04;100673.54;1856895;75;21175;-79
2020/12/14 01:54:36;;;;;;;20.57;11.93;;;;;;;6.59;56.25;100666.45;1856516;76;21124;-79
2020/12/14 01:57:04;;;;;;;22.52;13.35;;;;;;;6.58;56.34;100679.38;1848028;76;21115;-78
2020/12/14 01:59:32;;;;;;;22.17;12.90;;;;;;;6.66;56.15;100673.92;1802153;79;21125;-78
2020/12/14 02:02:00;;;;;;;20.25;13.03;;;;;;;6.60;56.28;100667.30;1818550;78;21176;-78
2020/12/14 02:04:29;;;;;;;21.65;12.35;;;;;;;6.61;56.20;100666.32;1797837;79;21182;-76
2020/12/14 02:06:58;;;;;;;20.92;12.55;;;;;;;6.54;56.35;100673.98;1802987;79;21192;-79
2020/12/14 02:09:26;;;;;;;13.98;9.00;;;;;;;6.53;56.36;100667.44;1875964;76;21010;-78
2020/12/14 02:11:55;;;;;;;16.70;9.43;;;;;;;6.54;56.37;100667.33;1795513;79;21180;-79
2020/12/14 02:14:23;;;;;;;16.07;9.73;;;;;;;6.59;56.27;100668.28;1880511;76;21684;-77
2020/12/14 02:16:51;;;;;;;17.05;10.78;;;;;;;6.61;56.27;100668.49;1879945;76;21157;-78
2020/12/14 02:19:19;;;;;;;17.35;10.88;;;;;;;6.64;56.20;100665.23;1795423;79;21110;-77
2020/12/14 02:21:50;;;;;;;21.45;11.60;;;;;;;6.63;56.17;100662.19;1880785;76;21043;-78
2020/12/14 02:24:18;;;;;;;21.85;11.90;;;;;;;6.60;56.19;100659.31;1880426;76;21161;-79
2020/12/14 02:26:48;;;;;;;21.02;12.73;;;;;;;6.54;56.28;100655.81;1795474;79;21584;-77
2020/12/14 02:29:19;;;;;;;21.00;10.08;;;;;;;6.54;56.25;100647.37;1859925;76;21147;-78
2020/12/14 02:31:46;;;;;;;15.58;9.58;;;;;;;6.55;56.21;100650.38;1803182;78;21548;-79
2020/12/14 02:34:15;;;;;;;14.50;8.80;;;;;;;6.53;56.25;100646.15;1812543;79;21532;-76
2020/12/14 02:36:42;;;;;;;16.75;10.15;;;;;;;6.49;56.37;100646.87;1824732;77;21141;-76
2020/12/14 02:39:12;;;;;;;17.67;12.05;;;;;;;6.48;56.45;100644.36;1811034;79;22632;-77
2020/12/14 02:41:40;;;;;;;21.20;12.07;;;;;;;6.52;56.38;100650.63;1845700;77;21149;-76
2020/12/14 02:44:08;;;;;;;26.82;14.45;;;;;;;6.57;56.22;100650.25;1845868;77;21548;-77
2020/12/14 02:46:36;;;;;;;22.05;12.45;;;;;;;6.56;56.11;100654.73;1845602;77;21172;-79
2020/12/14 02:49:04;;;;;;;26.17;15.08;;;;;;;6.52;56.17;100653.29;1845889;77;21129;-77
2020/12/14 02:51:32;;;;;;;18.00;10.40;;;;;;;6.51;56.21;100657.42;1845575;77;21785;-78
2020/12/14 02:54:00;;;;;;;17.67;10.25;;;;;;;6.52;56.18;100657.28;1845731;77;21161;-80
2020/12/14 02:56:28;;;;;;;17.12;10.23;;;;;;;6.54;56.21;100661.14;1845674;77;21126;-80
2020/12/14 02:58:57;;;;;;;16.35;9.83;;;;;;;6.54;56.23;100654.48;1845770;77;21161;-80
2020/12/14 03:01:25;;;;;;;17.17;10.68;;;;;;;6.57;56.23;100665.72;1845692;77;21164;-76
2020/12/14 03:03:53;;;;;;;15.65;9.90;;;;;;;6.57;56.20;100671.05;1809428;77;21189;-78
2020/12/14 03:06:21;;;;;;;15.60;11.05;;;;;;;6.57;56.22;100668.38;1777770;79;21317;-78
2020/12/14 03:08:50;;;;;;;14.35;8.15;;;;;;;6.60;56.09;100666.81;1853530;76;21186;-77
2020/12/14 03:11:19;;;;;;;13.00;8.40;;;;;;;6.60;56.05;100664.15;1811868;78;21186;-79
2020/12/14 03:13:47;;;;;;;15.58;9.30;;;;;;;6.58;56.07;100660.75;1799379;79;20994;-79
2020/12/14 03:16:15;;;;;;;14.80;9.60;;;;;;;6.61;56.07;100665.83;1796486;79;21880;-77
2020/12/14 03:18:44;;;;;;;13.32;8.83;;;;;;;6.66;55.96;100663.28;1800469;79;21568;-80
2020/12/14 03:21:11;;;;;;;15.15;9.23;;;;;;;6.68;55.93;100668.00;1810404;79;21223;-78
2020/12/14 03:23:39;;;;;;;12.50;8.93;;;;;;;6.67;55.90;100663.14;1815451;77;21181;-77
2020/12/14 03:26:07;;;;;;;14.53;8.75;;;;;;;6.57;56.06;100671.53;1826070;77;21176;-78
2020/12/14 03:28:35;;;;;;;12.25;8.28;;;;;;;6.65;56.00;100676.23;1831739;77;21205;-78
2020/12/14 03:31:04;;;;;;;13.30;8.30;;;;;;;6.69;55.87;100672.34;1800647;79;21194;-78
2020/12/14 03:33:32;;;;;;;14.35;8.88;;;;;;;6.73;55.83;100680.44;1796031;79;22228;-76
2020/12/14 03:36:00;;;;;;;15.55;10.08;;;;;;;6.86;55.48;100682.44;1814339;78;21110;-78
2020/12/14 03:38:28;;;;;;;13.68;9.65;;;;;;;6.76;55.69;100686.81;1803344;79;21336;-76
2020/12/14 03:40:56;;;;;;;14.18;9.15;;;;;;;6.73;55.74;100680.44;1850623;76;21763;-81
2020/12/14 03:43:24;;;;;;;14.70;9.18;;;;;;;6.77;55.66;100686.70;1811734;78;21038;-78
2020/12/14 03:45:52;;;;;;;14.93;9.15;;;;;;;6.76;55.64;100683.66;1799997;79;21114;-77
2020/12/14 03:48:21;;;;;;;10.35;7.03;;;;;;;6.74;55.65;100686.11;1788358;79;21120;-79
2020/12/14 03:50:48;;;;;;;13.40;8.63;;;;;;;6.76;55.69;100694.80;1787461;79;21149;-77
2020/12/14 03:53:16;;;;;;;13.25;8.13;;;;;;;6.75;55.70;100699.77;1775458;79;22303;-78
2020/12/14 03:55:45;;;;;;;15.48;9.75;;;;;;;6.78;55.69;100698.20;1771064;80;21033;-79
2020/12/14 03:58:14;;;;;;;14.10;9.10;;;;;;;6.76;55.67;100695.64;1771424;81;21479;-77
2020/12/14 04:00:44;;;;;;;17.45;10.08;;;;;;;6.74;55.74;100694.10;1780864;79;21171;-76
2020/12/14 04:03:12;;;;;;;13.85;8.60;;;;;;;6.76;55.71;100693.47;1778043;79;21145;-75
2020/12/14 04:05:40;;;;;;;14.03;9.58;;;;;;;6.75;55.64;100691.30;1802351;79;22229;-77
2020/12/14 04:08:07;;;;;;;14.15;9.60;;;;;;;6.70;55.69;100701.98;1766448;79;21184;-77
2020/12/14 04:10:36;;;;;;;16.77;9.63;;;;;;;6.71;55.65;100697.00;1780866;79;21185;-78
2020/12/14 04:13:04;;;;;;;17.10;9.63;;;;;;;6.64;55.68;100702.50;1791153;79;21161;-78
2020/12/14 04:15:32;;;;;;;19.80;11.55;;;;;;;6.58;55.83;100700.67;1788671;79;21273;-77
2020/12/14 04:18:00;;;;;;;18.90;11.30;;;;;;;6.18;56.77;100704.93;1774781;79;21805;-79
2020/12/14 04:20:28;;;;;;;18.17;10.30;;;;;;;6.48;56.25;100704.23;1779767;79;21017;-78
2020/12/14 04:22:56;;;;;;;18.05;10.82;;;;;;;6.27;56.64;100705.52;1771187;81;21176;-77
2020/12/14 04:25:24;;;;;;;15.80;9.63;;;;;;;6.03;57.12;100709.16;1812031;79;21160;-76
2020/12/14 04:27:52;;;;;;;19.95;11.00;;;;;;;6.25;56.87;100710.09;1792359;80;21171;-76
2020/12/14 04:30:20;;;;;;;15.45;8.63;;;;;;;6.13;57.05;100709.74;1811997;79;21735;-76
2020/12/14 04:32:48;;;;;;;16.50;9.20;;;;;;;6.09;57.23;100703.36;1811744;79;21173;-77
2020/12/14 04:35:17;;;;;;;17.02;10.10;;;;;;;5.95;57.63;100700.97;1810993;79;21157;-77
2020/12/14 04:37:45;;;;;;;19.12;12.05;;;;;;;5.93;57.79;100702.89;1810283;79;21231;-76
2020/12/14 04:40:13;;;;;;;18.82;11.22;;;;;;;5.92;57.93;100703.02;1810343;79;21662;-77
2020/12/14 04:42:41;;;;;;;18.25;10.78;;;;;;;5.94;58.02;100703.24;1810791;79;21372;-77
2020/12/14 04:45:11;;;;;;;14.23;9.63;;;;;;;5.98;58.06;100707.84;1810989;79;21170;-76
2020/12/14 04:47:39;;;;;;;15.23;8.83;;;;;;;5.84;58.22;100703.10;1810633;78;21435;-80
2020/12/14 04:50:07;;;;;;;16.67;9.20;;;;;;;5.93;57.98;100708.20;1811049;78;21544;-77
2020/12/14 04:52:36;;;;;;;15.15;9.28;;;;;;;5.97;57.86;100707.48;1782248;79;21176;-78
2020/12/14 04:55:03;;;;;;;18.12;11.10;;;;;;;5.99;57.85;100710.36;1811956;79;21364;-77
2020/12/14 04:57:31;;;;;;;15.95;9.55;;;;;;;5.97;57.90;100705.67;1837510;77;21184;-79
2020/12/14 04:59:59;;;;;;;14.40;9.75;;;;;;;5.97;57.81;100712.31;1825351;78;21139;-79
2020/12/14 05:02:28;;;;;;;16.20;10.25;;;;;;;5.95;57.89;100706.74;1845851;77;21130;-78
2020/12/14 05:04:56;;;;;;;16.40;9.40;;;;;;;5.94;57.96;100712.55;1845945;77;21158;-77
2020/12/14 05:07:43;;;;;;;12.25;7.45;;;;;;;5.93;57.96;100708.69;1845888;77;21314;-78
2020/12/14 05:10:12;;;;;;;11.73;7.28;;;;;;;5.92;58.00;100711.84;1845491;77;21600;-75
2020/12/14 05:12:44;;;;;;;14.55;9.05;;;;;;;5.92;58.12;100713.17;1844751;77;21647;-77
2020/12/14 05:15:21;;;;;;;16.55;9.70;;;;;;;5.94;58.16;100715.20;1831563;77;21185;-76
2020/12/14 05:17:50;;;;;;;14.70;9.33;;;;;;;5.97;58.21;100716.30;1817241;77;21175;-79
2020/12/14 05:20:20;;;;;;;14.95;9.40;;;;;;;5.98;58.08;100717.98;1799374;78;21497;-78
2020/12/14 05:23:03;;;;;;;14.90;9.40;;;;;;;5.99;58.05;100717.02;1791863;79;21133;-79
2020/12/14 05:25:31;;;;;;;12.65;8.00;;;;;;;5.98;58.05;100716.66;1783773;78;21201;-80
2020/12/14 05:28:19;;;;;;;12.63;7.90;;;;;;;5.97;57.97;100726.94;1798487;78;21093;-78
2020/12/14 05:30:41;;;;;;;10.30;7.00;;;;;;;5.96;57.89;100723.92;1791603;79;21085;-80
2020/12/14 05:33:11;;;;;;;17.65;8.88;;;;;;;5.96;57.89;100720.42;1801697;79;21349;-79
2020/12/14 05:35:43;;;;;;;12.93;7.85;;;;;;;5.95;57.89;100723.56;1813874;78;21193;-79
2020/12/14 05:38:28;;;;;;;15.13;9.30;;;;;;;5.97;57.85;100720.78;1798228;79;21077;-79
2020/12/14 05:41:02;;;;;;;16.70;9.85;;;;;;;5.96;57.86;100723.92;1795841;79;21097;-78
2020/12/14 05:43:31;;;;;;;16.57;9.65;;;;;;;5.95;57.84;100730.22;1797795;79;21086;-78
2020/12/14 05:46:15;;;;;;;12.93;7.67;;;;;;;5.92;57.85;100726.46;1819746;77;21314;-76
2020/12/14 05:48:43;;;;;;;14.45;8.45;;;;;;;5.91;57.99;100724.75;1812066;79;21097;-77
2020/12/14 05:51:12;;;;;;;15.88;9.55;;;;;;;5.95;58.08;100730.67;1800196;77;21111;-78
2020/12/14 05:53:47;;;;;;;15.75;10.13;;;;;;;5.97;58.09;100736.73;1813360;78;21099;-77
2020/12/14 05:56:15;;;;;;;17.20;10.32;;;;;;;6.00;58.16;100737.34;1798814;76;21750;-76
2020/12/14 05:58:44;;;;;;;15.68;9.88;;;;;;;6.05;58.12;100739.14;1802790;77;21357;-78
2020/12/14 06:01:12;;;;;;;15.65;9.98;;;;;;;6.10;58.01;100742.28;1821035;77;21108;-77
2020/12/14 06:03:41;;;;;;;14.98;8.88;;;;;;;6.12;57.88;100745.30;1795006;79;21470;-79
2020/12/14 06:06:09;;;;;;;14.38;8.63;;;;;;;6.10;57.88;100750.26;1805976;77;21112;-78
2020/12/14 06:08:48;;;;;;;15.35;8.35;;;;;;;6.08;57.81;100755.33;1810733;77;21107;-77
2020/12/14 06:11:17;;;;;;;13.62;8.45;;;;;;;6.08;57.76;100752.66;1810631;77;21196;-78
2020/12/14 06:13:53;;;;;;;13.62;8.70;;;;;;;6.10;57.79;100759.56;1817760;78;21115;-77
2020/12/14 06:16:25;;;;;;;15.50;10.00;;;;;;;6.12;57.75;100760.77;1813527;78;21152;-79
2020/12/14 06:18:56;;;;;;;16.07;11.10;;;;;;;6.13;57.68;100759.79;1807975;78;21094;-77
2020/12/14 06:21:47;;;;;;;14.13;10.58;;;;;;;6.15;57.60;100760.53;1808784;77;21079;-79
2020/12/14 06:24:23;;;;;;;17.75;9.75;;;;;;;6.20;57.49;100756.17;1807793;77;21187;-78
2020/12/14 06:26:51;;;;;;;14.00;8.90;;;;;;;6.20;57.46;100761.49;1807821;77;21116;-77
2020/12/14 06:29:33;;;;;;;12.60;7.72;;;;;;;6.30;57.23;100759.78;1812275;76;21112;-77
2020/12/14 06:32:01;;;;;;;19.32;13.43;;;;;;;6.29;57.31;100763.41;1805702;77;21325;-76
2020/12/14 06:34:38;;;;;;;14.98;10.20;;;;;;;6.35;57.32;100762.42;1807324;77;21095;-77
2020/12/14 06:37:06;;;;;;;15.03;8.85;;;;;;;6.40;57.33;100770.03;1803746;77;21369;-77
2020/12/14 06:39:40;;;;;;;16.73;10.90;;;;;;;6.44;57.24;100770.15;1811295;78;21170;-77
2020/12/14 06:42:15;;;;;;;13.18;8.20;;;;;;;6.46;57.17;100769.56;1815133;78;21133;-77
2020/12/14 06:44:49;;;;;;;15.72;8.90;;;;;;;6.32;57.47;100767.17;1810499;78;21098;-77
2020/12/14 06:47:46;;;;;;;13.03;7.00;;;;;;;6.31;57.49;100776.09;1766735;78;21107;-77
2020/12/14 06:50:31;;;;;;;14.70;7.33;;;;;;;6.30;57.53;100773.08;1803074;79;21235;-77
2020/12/14 06:53:03;;;;;;;13.53;9.25;;;;;;;6.41;57.34;100773.08;1828636;77;21116;-77
2020/12/14 06:55:46;;;;;;;14.20;9.28;;;;;;;6.46;57.20;100775.38;1769663;77;21448;-77
2020/12/14 06:58:33;;;;;;;15.93;10.27;;;;;;;6.43;57.25;100772.95;1794417;78;21544;-76
2020/12/14 07:01:02;;;;;;;13.05;8.78;;;;;;;6.46;57.04;100772.22;1804111;78;21634;-77
2020/12/14 07:03:37;;;;;;;24.15;14.55;;;;;;;6.45;57.12;100778.97;1792086;77;21358;-77
2020/12/14 07:06:05;;;;;;;26.62;14.50;;;;;;;6.49;56.96;100787.91;1806519;77;21131;-76
2020/12/14 07:08:39;;;;;;;15.88;9.05;;;;;;;6.45;57.01;100784.30;1805951;77;21097;-77
2020/12/14 07:11:18;;;;;;;23.80;12.35;;;;;;;6.46;56.99;100787.34;1782392;79;21053;-77
2020/12/14 07:13:46;;;;;;;19.37;11.88;;;;;;;6.46;56.93;100785.52;1778019;79;21117;-77
2020/12/14 07:16:14;;;;;;;20.50;10.95;;;;;;;6.48;56.84;100786.23;1779751;79;21559;-77
2020/12/14 07:18:45;;;;;;;16.80;10.63;;;;;;;6.44;56.96;100792.77;1778618;79;20982;-77
2020/12/14 07:21:19;;;;;;;13.83;8.68;;;;;;;6.41;56.99;100790.38;1760251;79;21124;-78
2020/12/14 07:23:46;;;;;;;24.60;12.63;;;;;;;6.42;57.04;100792.06;1776495;79;21151;-76
2020/12/14 07:26:15;;;;;;;26.82;12.82;;;;;;;6.42;57.03;100793.39;1781629;79;21706;-76
2020/12/14 07:28:47;;;;;;;20.50;9.45;;;;;;;6.43;57.04;100791.08;1778984;78;21320;-76
2020/12/14 07:31:22;;;;;;;19.40;8.25;;;;;;;6.44;56.95;100795.91;1778782;79;21121;-76
2020/12/14 07:33:58;;;;;;;13.55;7.72;;;;;;;6.45;57.02;100801.59;1781817;78;21132;-76
2020/12/14 07:36:27;;;;;;;12.85;8.18;;;;;;;6.47;57.06;100801.84;1789208;78;21144;-77
2020/12/14 07:38:56;;;;;;;10.78;7.42;;;;;;;6.56;56.91;100805.09;1783323;78;21148;-78
2020/12/14 07:41:25;;;;;;;12.03;7.08;;;;;;;6.58;56.88;100805.80;1811823;77;21483;-78
2020/12/14 07:43:56;;;;;;;12.07;7.47;;;;;;;6.55;56.90;100803.90;1807702;76;21120;-76
2020/12/14 07:46:30;;;;;;;10.78;7.67;;;;;;;6.55;56.89;100809.22;1804764;77;40859;-75
2020/12/14 07:49:09;;;;;;;11.95;7.70;;;;;;;6.56;56.80;100808.24;1811053;77;21119;-77
2020/12/14 07:51:44;;;;;;;13.25;8.50;;;;;;;6.56;56.77;100813.08;1808110;76;21653;-76
2020/12/14 07:54:13;;;;;;;15.55;9.50;;;;;;;6.56;56.81;100809.09;1798977;78;21360;-77
2020/12/14 07:56:56;;;;;;;19.00;12.35;;;;;;;6.58;56.92;100815.61;1804688;77;21014;-77
2020/12/14 07:59:30;;;;;;;19.82;14.38;;;;;;;6.58;56.96;100816.45;1808117;77;21136;-77
2020/12/14 08:01:58;;;;;;;21.45;12.98;;;;;;;6.62;56.86;100815.72;1805697;77;21117;-77
2020/12/14 08:04:33;;;;;;;26.90;14.18;;;;;;;6.65;56.84;100817.30;1804464;77;21092;-77
2020/12/14 08:07:01;;;;;;;29.30;15.18;;;;;;;6.66;56.80;100808.34;1806942;77;22223;-78
2020/12/14 08:09:37;;;;;;;21.65;12.90;;;;;;;6.67;56.73;100811.36;1804454;77;21123;-78
2020/12/14 08:12:07;;;;;;;17.55;8.93;;;;;;;6.56;56.95;100814.41;1791058;77;21118;-77
2020/12/14 08:14:35;;;;;;;16.77;9.65;;;;;;;6.58;56.88;100809.80;1762970;78;21185;-77
2020/12/14 08:17:03;;;;;;;12.45;8.15;;;;;;;6.64;56.83;100810.30;1780007;77;21112;-77
2020/12/14 08:19:35;;;;;;;13.35;8.28;;;;;;;6.70;56.80;100813.78;1826734;77;21381;-77
2020/12/14 08:22:07;;;;;;;13.08;9.65;;;;;;;6.72;56.77;100812.70;1804745;78;21656;-77
2020/12/14 08:24:36;;;;;;;13.88;8.00;;;;;;;6.75;56.72;100813.77;1805711;77;21155;-77
2020/12/14 08:27:07;;;;;;;14.80;8.58;;;;;;;6.78;56.59;100811.34;1803617;77;21164;-77
2020/12/14 08:29:35;;;;;;;14.93;9.88;;;;;;;6.77;56.56;100812.33;1807247;77;21093;-79
2020/12/14 08:32:04;;;;;;;17.98;10.08;;;;;;;6.76;56.58;100806.62;1802589;78;21240;-77
2020/12/14 08:34:36;;;;;;;15.08;9.43;;;;;;;6.76;56.61;100806.62;1785868;77;21119;-77
2020/12/14 08:37:04;;;;;;;18.25;11.28;;;;;;;6.76;56.61;100807.95;1825957;77;21106;-78
2020/12/14 08:39:32;;;;;;;20.70;13.00;;;;;;;6.77;56.64;100810.50;1803758;78;21113;-77
2020/12/14 08:42:05;;;;;;;32.53;19.62;;;;;;;6.79;56.63;100803.72;1801116;76;21162;-78
2020/12/14 08:44:34;;;;;;;30.60;17.48;;;;;;;6.81;56.58;100801.75;1804985;77;21317;-78
2020/12/14 08:47:02;;;;;;;30.45;18.80;;;;;;;6.82;56.52;100802.98;1807240;77;21147;-78
2020/12/14 08:49:33;;;;;;;24.07;14.83;;;;;;;6.82;56.44;100804.31;1829125;77;21448;-78
2020/12/14 08:52:04;;;;;;;18.20;11.57;;;;;;;6.82;56.43;100803.47;1803495;77;21114;-78
2020/12/14 08:54:35;;;;;;;14.80;11.25;;;;;;;6.82;56.32;100807.47;1783645;77;21123;-77
2020/12/14 08:57:03;;;;;;;13.75;8.50;;;;;;;6.80;56.26;100804.91;1820211;76;23108;-78
2020/12/14 08:59:32;;;;;;;16.55;10.53;;;;;;;6.74;56.32;100804.58;1821699;76;21123;-78
2020/12/14 09:02:04;;;;;;;15.95;11.08;;;;;;;6.72;56.40;100798.52;1825745;76;21111;-78
2020/12/14 09:04:36;;;;;;;20.30;14.05;;;;;;;6.72;56.46;100796.73;1821928;76;20940;-79
2020/12/14 09:07:05;;;;;;;17.80;12.53;;;;;;;6.74;56.41;100793.93;1821836;76;21088;-78
2020/12/14 09:12:50;;;;;;;19.67;12.55;;;;;;;6.76;56.39;100778.66;1821095;77;22121;-79
2020/12/14 09:15:22;;;;;;;21.42;13.35;;;;;;;6.71;56.36;100778.20;1789613;78;21204;-79
2020/12/14 09:17:50;;;;;;;16.90;10.60;;;;;;;6.69;56.47;100787.65;1806769;78;21346;-77
2020/12/14 09:20:21;;;;;;;20.85;13.03;;;;;;;6.66;56.40;100783.05;1810538;78;21109;-78
2020/12/14 09:22:49;;;;;;;20.68;13.83;;;;;;;6.66;56.53;100788.38;1793993;79;21140;-78
2020/12/14 09:25:17;;;;;;;20.85;13.58;;;;;;;6.66;56.57;100787.05;1806423;78;21113;-78
2020/12/14 09:27:46;;;;;;;22.35;14.85;;;;;;;6.63;56.55;100785.95;1816719;78;21112;-78
2020/12/14 09:30:14;;;;;;;25.08;15.95;;;;;;;6.62;56.66;100790.44;1816595;78;21347;-78
2020/12/14 09:32:42;;;;;;;22.17;14.18;;;;;;;6.64;56.69;100787.67;1817962;78;21108;-77
2020/12/14 09:35:14;;;;;;;20.43;13.50;;;;;;;6.66;56.67;100789.71;1816993;78;21144;-77
2020/12/14 09:37:42;;;;;;;17.23;10.90;;;;;;;6.67;56.62;100790.06;1811884;78;21088;-77
2020/12/14 09:40:12;;;;;;;19.02;11.18;;;;;;;6.67;56.67;100786.91;1813888;78;21619;-78
2020/12/14 09:42:41;;;;;;;20.08;11.80;;;;;;;6.69;56.55;100791.64;1814631;78;21355;-78
2020/12/14 09:45:13;;;;;;;16.87;11.48;;;;;;;6.70;56.57;100785.83;1815307;78;21119;-78
2020/12/14 09:47:50;;;;;;;18.90;12.35;;;;;;;6.72;56.56;100787.87;1814657;78;21160;-78
2020/12/14 09:50:19;;;;;;;17.75;11.73;;;;;;;6.71;56.52;100783.52;1780039;78;21088;-79
2020/12/14 09:52:48;;;;;;;17.45;11.55;;;;;;;6.72;56.61;100785.20;1817437;78;21088;-78
2020/12/14 09:55:19;;;;;;;19.02;11.90;;;;;;;6.73;56.56;100782.44;1814869;78;21147;-77
2020/12/14 09:57:47;;;;;;;13.03;8.83;;;;;;;6.76;56.51;100782.17;1815254;78;21127;-78
2020/12/14 10:00:15;;;;;;;15.10;9.15;;;;;;;6.80;56.29;100785.43;1858632;75;21174;-79
2020/12/14 10:02:49;;;;;;;18.10;10.58;;;;;;;6.75;56.26;100787.14;1811342;76;21447;-79
2020/12/14 10:05:19;;;;;;;16.82;11.45;;;;;;;6.75;56.32;100792.95;1853203;75;21081;-78
2020/12/14 10:07:51;;;;;;;19.20;11.70;;;;;;;6.72;56.34;100795.85;1823443;76;21384;-78
2020/12/14 10:10:19;;;;;;;16.75;11.40;;;;;;;6.69;56.36;100790.80;1781372;78;21581;-77
2020/12/14 10:12:52;;;;;;;21.80;11.48;;;;;;;6.68;56.47;100793.11;1809820;78;21120;-78
2020/12/14 10:15:35;;;;;;;17.30;11.33;;;;;;;6.69;56.57;100802.30;1804597;78;21571;-78
2020/12/14 10:28:41;;;;;;;16.00;9.78;;;;;;;6.75;56.52;100797.79;1846226;75;23501;-78
2020/12/14 10:31:10;;;;;;;22.58;12.13;;;;;;;6.72;56.54;100795.85;1813011;78;21182;-77
2020/12/14 10:33:38;;;;;;;23.70;13.78;;;;;;;6.75;56.49;100799.12;1810964;78;21495;-78
2020/12/14 10:36:11;;;;;;;25.90;13.98;;;;;;;6.81;56.29;100799.09;1779159;78;21588;-77
2020/12/14 10:38:46;;;;;;;21.02;12.55;;;;;;;6.82;56.26;100795.00;1830544;77;22671;-76
2020/12/14 10:41:19;;;;;;;17.27;9.88;;;;;;;6.74;56.25;100796.59;1801159;78;21101;-77
2020/12/14 10:43:47;;;;;;;20.68;11.18;;;;;;;6.74;56.29;100794.77;1814113;77;21290;-77
2020/12/14 10:46:17;;;;;;;21.05;11.78;;;;;;;6.75;56.37;100795.61;1812778;78;21721;-77
2020/12/14 10:48:45;;;;;;;17.40;10.43;;;;;;;6.76;56.44;100792.81;1810905;77;21096;-79
2020/12/14 10:51:15;;;;;;;21.50;12.25;;;;;;;6.76;56.36;100783.50;1816100;78;21093;-78
2020/12/14 10:53:43;;;;;;;22.17;12.10;;;;;;;6.77;56.35;100788.37;1816830;78;21088;-80
2020/12/14 10:56:12;;;;;;;18.70;11.33;;;;;;;6.77;56.37;100786.55;1820469;77;21383;-80
2020/12/14 10:58:40;;;;;;;20.70;11.68;;;;;;;6.78;56.33;100789.56;1785315;79;21153;-80
2020/12/14 11:01:10;;;;;;;22.48;11.68;;;;;;;6.77;56.27;100787.88;1811835;77;21089;-80
2020/12/14 11:03:39;;;;;;;13.75;8.28;;;;;;;6.76;56.32;100791.97;1806970;78;21088;-81
2020/12/14 11:06:07;;;;;;;19.10;10.00;;;;;;;6.77;56.35;100790.54;1811513;78;21096;-81
2020/12/14 11:08:35;;;;;;;15.13;9.48;;;;;;;6.79;56.34;100791.25;1811164;78;21360;-80
2020/12/14 11:11:03;;;;;;;18.95;10.72;;;;;;;6.81;56.43;100785.33;1810157;78;21124;-81
2020/12/14 11:13:31;;;;;;;15.78;9.78;;;;;;;6.85;56.29;100782.74;1815135;78;21120;-81
2020/12/14 11:16:00;;;;;;;17.30;11.22;;;;;;;6.86;56.27;100779.63;1810583;78;21124;-82
2020/12/14 11:18:30;;;;;;;21.62;11.28;;;;;;;6.85;56.24;100783.23;1808277;78;21092;-79
2020/12/14 11:20:58;;;;;;;18.87;12.07;;;;;;;6.84;56.21;100782.39;1814289;78;21392;-80
2020/12/14 11:23:29;;;;;;;21.10;12.10;;;;;;;6.84;56.18;100789.53;1834533;77;21108;-78
2020/12/14 11:25:57;;;;;;;13.90;8.73;;;;;;;6.84;56.17;100791.70;1829841;76;21393;-78
2020/12/14 11:28:42;;;;;;;18.07;10.48;;;;;;;6.84;56.22;100790.87;1826761;77;21114;-79
2020/12/14 11:31:10;;;;;;;15.50;11.08;;;;;;;6.87;56.18;100790.63;1804562;78;21096;-77
2020/12/14 11:33:50;;;;;;;16.05;10.23;;;;;;;6.91;56.16;100797.39;1802177;78;21196;-77
2020/12/14 11:36:24;;;;;;;14.87;9.58;;;;;;;6.91;56.02;100798.72;1815506;77;21143;-78
2020/12/14 11:38:52;;;;;;;16.35;10.20;;;;;;;6.91;55.96;100797.39;1813031;77;21189;-78
2020/12/14 11:41:20;;;;;;;17.85;10.72;;;;;;;6.91;55.88;100794.73;1791505;79;21176;-78
2020/12/14 11:43:48;;;;;;;17.55;11.93;;;;;;;6.93;55.87;100788.78;1811158;77;21934;-79
2020/12/14 11:46:15;;;;;;;21.00;12.85;;;;;;;6.90;55.81;100786.36;1804096;78;22417;-77